KSME/SME METAR and TAF weather

Enter ICAO airport designator
Station Type Date Time Source
KSME METAR 2019/06/17 06:55 UTC NOAA

KSME 170655Z AUTO 21003KT 10SM SCT032 SCT050 BKN075 20/18 A2998 RMK AO2 LTG DSNT E THRU S


Station Type Date Time Source
KSME Decoded METAR 2019/06/17 06:55 UTC NOAA

Somerset, Somerset-Pulaski County - J.T. Wilson Field Airport, KY, United States (KSME) 37-03-15N 084-36-54W
Jun 17, 2019 - 02:55 AM EDT / 2019.06.17 0655 UTC
Wind: from the SSW (210 degrees) at 3 MPH (3 KT):0
Visibility: 10 mile(s):0
Sky conditions: mostly cloudy
Weather: Lightning observed
Temperature: 68 F (20 C)
Dew Point: 64 F (18 C)
Relative Humidity: 88%
Pressure (altimeter): 29.98 in. Hg (1015 hPa)
ob: KSME 170655Z AUTO 21003KT 10SM SCT032 SCT050 BKN075 20/18 A2998 RMK AO2 LTG DSNT E THRU S
cycle: 7

Station Type Date Time Source
KSME TAF 2019/06/17 06:48 UTC NOAA

TAF KSME 170546Z 1706/1806 VRB04KT P6SM VCTS SCT050CB BKN100
FM170800 VRB03KT P6SM SCT040 BKN100
FM171400 24007KT P6SM VCTS SCT040CB BKN100
FM172100 24008KT P6SM -SHRA VCTS SCT040CB BKN100
FM180000 VRB04KT P6SM VCTS SCT040CB BKN100

Example: see airport list